Airfield :
LOGIN :

Register | Disclaimer

   EN    FR    IT 

 










Legend :    VFR   Marginal VFR   IFR   Intensive IFR   Very Intensive IFR
Visi :
Ceiling :
>= 8 km
>= 3000ft
5 to 8 km
1000 to 3000 ft
1500m to 5 km
500 to 1000 ft
800 to 1500m
200 to 500 ft
< 800m
< 200 ft
Symbols :   Thunderstorms  Fog  Heavy snow  Heavy precipitations  Wind > 20 kt
SIGMETs :     Misc.  Thunderstorms  Icing  Turbulence  Mountain Waves  Volcanic Ashes






- Airport Elevation : 11 ft
- IATA code : PVK


LGPZ - Aktion Lefkada Preveza

CURRENT METAR :
  • 261020Z 15006KT 9999 BKN020 16/11 Q1011

EXPIRED METARs :
  • 260950Z 15006KT 9999 BKN020 16/11 Q1011
  • 260920Z 16007KT 9999 BKN020 16/11 Q1011
  • 260850Z 17006KT 9999 BKN020 16/11 Q1012 RMK BKN180 BLU
  • 260820Z 16005KT 9999 BKN020 17/10 Q1012
  • 260750Z 17005KT 9999 BKN020 16/11 Q1012 RMK BKN180 BLU

TAF TAF LGPZ
Valid from the 26 at 06:00 until the 27 at 06:00 UTC


260500Z 2606/2706 06006KT 9999 SCT025 SCT080
BECMG 2606/2608 16010KT
BECMG 2620/2622 24012KT
PROB30
TEMPO 2700/2706 6000 RA SCT018 BKN025
PROB30 2702/2706 5000 TSRA SCT010 FEW016CB BKN020



MET'MAP, your aeronautical weather chart ! - Copyright ORBIFLY December 2007 - Disclaimer

ORBIFLY MET'MAP TEAM :

Programming & Development : Alexandra Zaïnal
Concept & original design : Baudouin d'Aumeries
Assistance for programming : Marc-Olivier Méhu
Technical & hardware support : Manuel Goepfert

Contact : metmap@orbifly.com




SOURCES & CREDITS :

   NOAA